createdAt,value
2022-12-20T12:21:32.329Z,7.01
2022-12-20T12:26:36.336Z,7.29
2022-12-20T12:31:58.107Z,7.83
2022-12-20T12:37:05.431Z,8.06
2022-12-20T12:42:14.541Z,7.73
2022-12-20T12:47:24.915Z,7.42
2022-12-20T12:52:36.228Z,7.53
2022-12-20T12:57:55.861Z,7.65
2022-12-20T13:02:57.592Z,7.67
2022-12-20T13:07:59.428Z,7.55
2022-12-20T13:13:01.865Z,7.66
2022-12-20T13:18:09.337Z,7.50
2022-12-20T13:23:10.783Z,7.63
2022-12-20T13:28:21.605Z,7.88
2022-12-20T13:33:23.074Z,7.87
2022-12-20T13:38:30.392Z,7.64
2022-12-20T13:43:41.827Z,7.62
2022-12-20T13:48:46.391Z,7.51
2022-12-20T13:54:00.242Z,7.49
2022-12-20T13:59:12.554Z,7.68
2022-12-20T14:04:14.970Z,7.51
2022-12-20T14:09:37.762Z,7.56
2022-12-20T14:14:44.299Z,7.46
2022-12-20T14:19:45.903Z,7.45
2022-12-20T14:24:47.480Z,7.47
2022-12-20T14:29:49.465Z,7.39
2022-12-20T14:34:51.378Z,7.58
2022-12-20T14:40:00.602Z,7.37
2022-12-20T14:45:05.739Z,7.52
2022-12-20T14:50:22.063Z,7.23
2022-12-20T14:55:34.745Z,7.35
2022-12-20T15:00:36.456Z,7.21
2022-12-20T15:05:51.788Z,7.30
2022-12-20T15:10:54.806Z,7.17
2022-12-20T15:15:59.159Z,7.06
2022-12-20T15:21:16.852Z,6.97
2022-12-20T15:26:22.126Z,7.00
2022-12-20T15:31:32.639Z,6.95
2022-12-20T15:36:35.119Z,6.90
2022-12-20T15:41:38.311Z,6.91
2022-12-20T15:46:40.028Z,7.01
2022-12-20T15:51:42.608Z,6.87
2022-12-20T15:56:44.164Z,7.06
2022-12-20T16:01:45.814Z,6.94
2022-12-20T16:06:49.660Z,6.94
2022-12-20T16:11:51.543Z,6.78
2022-12-20T16:16:53.096Z,6.88
2022-12-20T16:21:54.559Z,6.85
2022-12-20T16:26:56.138Z,6.75
2022-12-20T16:31:57.777Z,6.94
2022-12-20T16:36:59.385Z,6.79
2022-12-20T16:42:01.030Z,6.78
2022-12-20T16:47:02.621Z,6.71
2022-12-20T16:52:05.288Z,6.74
2022-12-20T16:57:06.816Z,6.74
2022-12-20T17:02:26.163Z,6.74
2022-12-20T17:07:28.049Z,6.72
2022-12-20T17:12:29.498Z,6.65
2022-12-20T17:17:30.920Z,6.84
2022-12-20T17:27:52.483Z,6.66
2022-12-20T17:32:54.275Z,6.73
2022-12-20T17:37:56.662Z,7.03
2022-12-20T17:42:58.160Z,7.04
2022-12-20T17:47:59.920Z,6.64
2022-12-20T17:53:01.560Z,6.99
2022-12-20T17:58:03.024Z,6.78
2022-12-20T18:03:04.621Z,6.85
2022-12-20T18:08:06.397Z,6.86
2022-12-20T18:13:08.384Z,6.84
2022-12-20T18:18:09.909Z,6.82
2022-12-20T18:23:11.344Z,6.78
2022-12-20T18:28:12.850Z,6.64
2022-12-20T18:33:14.372Z,6.92
2022-12-20T18:38:18.713Z,6.73
2022-12-20T18:43:20.250Z,6.84
2022-12-20T18:48:25.991Z,6.76
2022-12-20T18:53:27.614Z,6.66
2022-12-20T18:58:29.140Z,6.77
2022-12-20T19:03:31.005Z,6.63
2022-12-20T19:08:32.870Z,6.90
2022-12-20T19:13:34.760Z,6.88
2022-12-20T19:18:36.366Z,6.74
2022-12-20T19:23:39.507Z,6.87
2022-12-20T19:28:42.499Z,6.84
2022-12-20T19:33:47.011Z,6.66
2022-12-20T19:38:51.657Z,6.65
2022-12-20T19:43:53.516Z,6.63
2022-12-20T19:48:55.923Z,6.79
2022-12-20T19:53:58.499Z,6.78
2022-12-20T19:59:00.676Z,6.88
2022-12-20T20:04:02.299Z,6.96
2022-12-20T20:09:04.081Z,6.73
2022-12-20T20:14:05.638Z,6.96
2022-12-20T20:19:07.214Z,6.96
2022-12-20T20:24:08.735Z,6.96
2022-12-20T20:29:10.400Z,6.92
2022-12-20T20:34:11.881Z,7.10
2022-12-20T20:39:13.329Z,6.97
2022-12-20T20:44:14.947Z,7.11
2022-12-20T20:49:16.374Z,6.98
2022-12-20T20:54:17.834Z,7.11
2022-12-20T20:59:19.388Z,7.05
2022-12-20T21:04:20.861Z,6.94
2022-12-20T21:09:22.296Z,6.93
2022-12-20T21:14:43.806Z,6.88
2022-12-20T21:19:45.189Z,6.87
2022-12-20T21:24:46.702Z,6.98
2022-12-20T21:29:53.315Z,6.88
2022-12-20T21:34:57.902Z,6.90
2022-12-20T21:40:02.852Z,6.91
2022-12-20T21:45:04.900Z,6.83
2022-12-20T21:50:07.001Z,6.92
2022-12-20T21:55:08.967Z,6.91
2022-12-20T22:00:10.881Z,6.92
2022-12-20T22:05:12.402Z,6.96
2022-12-20T22:10:14.051Z,6.79
2022-12-20T22:15:15.571Z,6.98
2022-12-20T22:20:17.108Z,6.96
2022-12-20T22:25:18.624Z,6.85
2022-12-20T22:30:20.065Z,6.81
2022-12-20T22:35:23.143Z,6.74
2022-12-20T22:40:24.745Z,6.73
2022-12-20T22:45:26.326Z,6.97
2022-12-20T22:50:27.843Z,7.01
2022-12-20T22:55:29.357Z,6.83
2022-12-20T23:00:31.163Z,6.85
2022-12-20T23:05:32.643Z,7.15
2022-12-20T23:10:34.221Z,6.96
2022-12-20T23:15:36.217Z,6.93
2022-12-20T23:20:37.683Z,7.03
2022-12-20T23:25:39.219Z,6.94
2022-12-20T23:30:40.795Z,6.95
2022-12-20T23:35:42.306Z,7.00
2022-12-20T23:40:43.937Z,7.10
2022-12-20T23:45:45.544Z,7.09
2022-12-20T23:50:58.639Z,6.94
2022-12-20T23:56:18.501Z,7.19
